sensor_id;sensor_type;location;lat;lon;timestamp;pressure;altitude;pressure_sealevel;temperature;humidity
61568;BME280;47462;59.172;17.196;2024-01-16T00:01:03;99203.75;;;-12.90;72.41
61568;BME280;47462;59.172;17.196;2024-01-16T00:03:29;99206.22;;;-12.92;72.25
61568;BME280;47462;59.172;17.196;2024-01-16T00:05:54;99206.47;;;-12.85;72.23
61568;BME280;47462;59.172;17.196;2024-01-16T00:08:20;99208.91;;;-12.87;72.27
61568;BME280;47462;59.172;17.196;2024-01-16T00:10:46;99213.56;;;-12.96;72.14
61568;BME280;47462;59.172;17.196;2024-01-16T00:13:11;99220.59;;;-13.08;72.51
61568;BME280;47462;59.172;17.196;2024-01-16T00:15:37;99226.25;;;-13.13;72.09
61568;BME280;47462;59.172;17.196;2024-01-16T00:18:02;99225.47;;;-13.12;72.79
61568;BME280;47462;59.172;17.196;2024-01-16T00:20:28;99221.00;;;-13.19;72.57
61568;BME280;47462;59.172;17.196;2024-01-16T00:22:53;99230.00;;;-13.24;72.48
61568;BME280;47462;59.172;17.196;2024-01-16T00:25:19;99231.44;;;-13.29;72.81
61568;BME280;47462;59.172;17.196;2024-01-16T00:27:45;99239.91;;;-13.27;72.95
61568;BME280;47462;59.172;17.196;2024-01-16T00:30:11;99243.31;;;-13.25;72.79
61568;BME280;47462;59.172;17.196;2024-01-16T00:32:37;99251.00;;;-13.22;73.02
61568;BME280;47462;59.172;17.196;2024-01-16T00:35:04;99243.31;;;-13.25;72.22
61568;BME280;47462;59.172;17.196;2024-01-16T00:37:29;99247.38;;;-13.29;72.96
61568;BME280;47462;59.172;17.196;2024-01-16T00:39:55;99240.81;;;-13.25;72.50
61568;BME280;47462;59.172;17.196;2024-01-16T00:42:20;99251.06;;;-13.20;72.76
61568;BME280;47462;59.172;17.196;2024-01-16T00:44:46;99252.38;;;-13.29;72.73
61568;BME280;47462;59.172;17.196;2024-01-16T00:47:11;99252.38;;;-13.29;72.45
61568;BME280;47462;59.172;17.196;2024-01-16T00:49:37;99260.56;;;-13.33;72.17
61568;BME280;47462;59.172;17.196;2024-01-16T00:52:02;99251.34;;;-13.34;72.27
61568;BME280;47462;59.172;17.196;2024-01-16T00:54:28;99255.53;;;-13.33;72.61
61568;BME280;47462;59.172;17.196;2024-01-16T00:56:54;99250.44;;;-13.36;72.27
61568;BME280;47462;59.172;17.196;2024-01-16T00:59:27;99256.03;;;-13.41;72.08
61568;BME280;47462;59.172;17.196;2024-01-16T01:01:53;99264.56;;;-13.38;71.96
61568;BME280;47462;59.172;17.196;2024-01-16T01:04:18;99276.25;;;-13.38;72.12
61568;BME280;47462;59.172;17.196;2024-01-16T01:06:44;99274.53;;;-13.39;72.15
61568;BME280;47462;59.172;17.196;2024-01-16T01:09:09;99273.88;;;-13.35;71.96
61568;BME280;47462;59.172;17.196;2024-01-16T01:11:37;99272.56;;;-13.47;71.86
61568;BME280;47462;59.172;17.196;2024-01-16T01:14:03;99281.75;;;-13.47;72.13
61568;BME280;47462;59.172;17.196;2024-01-16T01:16:28;99285.69;;;-13.52;71.27
61568;BME280;47462;59.172;17.196;2024-01-16T01:18:54;99285.41;;;-13.58;71.88
61568;BME280;47462;59.172;17.196;2024-01-16T01:21:19;99295.44;;;-13.58;71.79
61568;BME280;47462;59.172;17.196;2024-01-16T01:23:45;99297.09;;;-13.59;71.60
61568;BME280;47462;59.172;17.196;2024-01-16T01:26:10;99301.34;;;-13.58;71.88
61568;BME280;47462;59.172;17.196;2024-01-16T01:28:39;99294.66;;;-13.57;71.61
61568;BME280;47462;59.172;17.196;2024-01-16T01:31:05;99296.81;;;-13.65;71.54
61568;BME280;47462;59.172;17.196;2024-01-16T01:33:30;99307.34;;;-13.54;71.94
61568;BME280;47462;59.172;17.196;2024-01-16T01:35:56;99305.94;;;-13.48;72.00
61568;BME280;47462;59.172;17.196;2024-01-16T01:38:21;99303.72;;;-13.41;71.92
61568;BME280;47462;59.172;17.196;2024-01-16T01:40:46;99309.47;;;-13.44;71.39
61568;BME280;47462;59.172;17.196;2024-01-16T01:43:22;99310.84;;;-13.51;71.50
61568;BME280;47462;59.172;17.196;2024-01-16T01:46:02;99312.44;;;-13.53;71.27
61568;BME280;47462;59.172;17.196;2024-01-16T01:48:33;99309.06;;;-13.53;71.46
61568;BME280;47462;59.172;17.196;2024-01-16T01:50:59;99320.88;;;-13.51;71.22
61568;BME280;47462;59.172;17.196;2024-01-16T01:53:25;99320.59;;;-13.57;71.62
61568;BME280;47462;59.172;17.196;2024-01-16T01:55:50;99323.66;;;-13.64;70.95
61568;BME280;47462;59.172;17.196;2024-01-16T01:58:16;99329.44;;;-13.65;71.35
61568;BME280;47462;59.172;17.196;2024-01-16T02:00:41;99327.63;;;-13.68;70.62
61568;BME280;47462;59.172;17.196;2024-01-16T02:03:07;99337.81;;;-13.65;70.58
61568;BME280;47462;59.172;17.196;2024-01-16T02:05:33;99345.13;;;-13.69;70.93
61568;BME280;47462;59.172;17.196;2024-01-16T02:07:58;99346.94;;;-13.67;71.20
61568;BME280;47462;59.172;17.196;2024-01-16T02:10:25;99353.31;;;-13.73;70.89
61568;BME280;47462;59.172;17.196;2024-01-16T02:12:51;99354.81;;;-13.77;70.95
61568;BME280;47462;59.172;17.196;2024-01-16T02:15:16;99352.03;;;-13.83;70.97
61568;BME280;47462;59.172;17.196;2024-01-16T02:17:42;99362.06;;;-13.83;70.54
61568;BME280;47462;59.172;17.196;2024-01-16T02:20:07;99360.44;;;-13.83;70.84
61568;BME280;47462;59.172;17.196;2024-01-16T02:22:33;99353.53;;;-13.87;70.58
61568;BME280;47462;59.172;17.196;2024-01-16T02:25:01;99371.22;;;-13.84;70.74
61568;BME280;47462;59.172;17.196;2024-01-16T02:27:26;99369.34;;;-13.88;70.86
61568;BME280;47462;59.172;17.196;2024-01-16T02:29:52;99371.78;;;-13.89;70.44
61568;BME280;47462;59.172;17.196;2024-01-16T02:32:17;99360.34;;;-14.02;70.31
61568;BME280;47462;59.172;17.196;2024-01-16T02:34:42;99375.00;;;-14.10;70.65
61568;BME280;47462;59.172;17.196;2024-01-16T02:37:08;99380.03;;;-14.10;70.93
61568;BME280;47462;59.172;17.196;2024-01-16T02:39:34;99379.97;;;-14.11;70.93
61568;BME280;47462;59.172;17.196;2024-01-16T02:41:59;99379.28;;;-14.07;70.75
61568;BME280;47462;59.172;17.196;2024-01-16T02:44:25;99372.44;;;-14.11;70.74
61568;BME280;47462;59.172;17.196;2024-01-16T02:46:50;99373.06;;;-14.15;71.30
61568;BME280;47462;59.172;17.196;2024-01-16T02:49:15;99374.13;;;-14.10;70.80
61568;BME280;47462;59.172;17.196;2024-01-16T02:51:41;99378.06;;;-14.15;70.74
61568;BME280;47462;59.172;17.196;2024-01-16T02:54:06;99385.44;;;-14.19;70.66
61568;BME280;47462;59.172;17.196;2024-01-16T02:56:32;99389.69;;;-14.18;71.27
61568;BME280;47462;59.172;17.196;2024-01-16T02:58:57;99386.88;;;-14.24;71.19
61568;BME280;47462;59.172;17.196;2024-01-16T03:01:22;99390.25;;;-14.23;71.46
61568;BME280;47462;59.172;17.196;2024-01-16T03:03:48;99391.81;;;-14.25;70.97
61568;BME280;47462;59.172;17.196;2024-01-16T03:06:23;99397.53;;;-14.28;71.17
61568;BME280;47462;59.172;17.196;2024-01-16T03:08:49;99393.28;;;-14.29;71.47
61568;BME280;47462;59.172;17.196;2024-01-16T03:11:15;99393.22;;;-14.30;71.59
61568;BME280;47462;59.172;17.196;2024-01-16T03:13:40;99393.81;;;-14.36;71.25
61568;BME280;47462;59.172;17.196;2024-01-16T03:16:10;99390.34;;;-14.38;71.56
61568;BME280;47462;59.172;17.196;2024-01-16T03:18:36;99378.31;;;-14.45;72.10
61568;BME280;47462;59.172;17.196;2024-01-16T03:21:02;99397.63;;;-14.43;71.61
61568;BME280;47462;59.172;17.196;2024-01-16T03:23:28;99399.22;;;-14.45;71.35
61568;BME280;47462;59.172;17.196;2024-01-16T03:25:54;99403.91;;;-14.51;71.34
61568;BME280;47462;59.172;17.196;2024-01-16T03:28:19;99402.41;;;-14.47;71.72
61568;BME280;47462;59.172;17.196;2024-01-16T03:30:46;99403.53;;;-14.42;71.69
61568;BME280;47462;59.172;17.196;2024-01-16T03:33:11;99403.28;;;-14.47;71.37
61568;BME280;47462;59.172;17.196;2024-01-16T03:35:36;99404.00;;;-14.49;71.32
61568;BME280;47462;59.172;17.196;2024-01-16T03:38:02;99411.81;;;-14.43;71.29
61568;BME280;47462;59.172;17.196;2024-01-16T03:40:27;99413.06;;;-14.51;71.17
61568;BME280;47462;59.172;17.196;2024-01-16T03:42:53;99427.94;;;-14.55;71.42
61568;BME280;47462;59.172;17.196;2024-01-16T03:45:19;99429.22;;;-14.63;71.16
61568;BME280;47462;59.172;17.196;2024-01-16T03:47:44;99443.25;;;-14.66;71.32
61568;BME280;47462;59.172;17.196;2024-01-16T03:50:10;99439.94;;;-14.65;71.54
61568;BME280;47462;59.172;17.196;2024-01-16T03:52:35;99440.66;;;-14.68;71.58
61568;BME280;47462;59.172;17.196;2024-01-16T03:55:01;99439.78;;;-14.68;71.64
61568;BME280;47462;59.172;17.196;2024-01-16T03:57:26;99438.31;;;-14.65;71.54
61568;BME280;47462;59.172;17.196;2024-01-16T03:59:51;99447.53;;;-14.64;71.54
61568;BME280;47462;59.172;17.196;2024-01-16T04:02:17;99451.06;;;-14.77;71.15
61568;BME280;47462;59.172;17.196;2024-01-16T04:04:42;99437.13;;;-14.88;71.69
61568;BME280;47462;59.172;17.196;2024-01-16T04:07:07;99449.16;;;-14.81;71.75
61568;BME280;47462;59.172;17.196;2024-01-16T04:09:32;99458.50;;;-14.78;71.59
61568;BME280;47462;59.172;17.196;2024-01-16T04:11:58;99449.09;;;-14.82;71.67
61568;BME280;47462;59.172;17.196;2024-01-16T04:14:23;99460.59;;;-14.86;71.88
61568;BME280;47462;59.172;17.196;2024-01-16T04:16:48;99466.63;;;-14.82;71.94
61568;BME280;47462;59.172;17.196;2024-01-16T04:19:14;99466.94;;;-14.76;71.48
61568;BME280;47462;59.172;17.196;2024-01-16T04:21:39;99452.56;;;-14.80;71.52
61568;BME280;47462;59.172;17.196;2024-01-16T04:24:05;99455.75;;;-14.83;71.99
61568;BME280;47462;59.172;17.196;2024-01-16T04:26:30;99466.00;;;-14.78;71.87
61568;BME280;47462;59.172;17.196;2024-01-16T04:28:55;99462.50;;;-14.82;71.63
61568;BME280;47462;59.172;17.196;2024-01-16T04:31:21;99459.75;;;-14.86;72.07
61568;BME280;47462;59.172;17.196;2024-01-16T04:33:47;99470.84;;;-14.81;71.59
61568;BME280;47462;59.172;17.196;2024-01-16T04:36:12;99469.03;;;-14.84;71.93
61568;BME280;47462;59.172;17.196;2024-01-16T04:38:38;99471.72;;;-14.81;71.86
61568;BME280;47462;59.172;17.196;2024-01-16T04:41:03;99474.53;;;-14.75;71.41
61568;BME280;47462;59.172;17.196;2024-01-16T04:43:29;99477.28;;;-14.86;71.48
61568;BME280;47462;59.172;17.196;2024-01-16T04:45:55;99474.22;;;-14.81;71.45
61568;BME280;47462;59.172;17.196;2024-01-16T04:48:20;99480.19;;;-14.79;71.76
61568;BME280;47462;59.172;17.196;2024-01-16T04:50:45;99483.38;;;-14.81;71.24
61568;BME280;47462;59.172;17.196;2024-01-16T04:53:10;99480.88;;;-14.81;71.68
61568;BME280;47462;59.172;17.196;2024-01-16T04:55:36;99488.06;;;-14.87;71.48
61568;BME280;47462;59.172;17.196;2024-01-16T04:58:02;99492.91;;;-14.91;71.24
61568;BME280;47462;59.172;17.196;2024-01-16T05:00:27;99490.41;;;-14.91;71.44
61568;BME280;47462;59.172;17.196;2024-01-16T05:02:53;99484.47;;;-14.93;71.33
61568;BME280;47462;59.172;17.196;2024-01-16T05:05:18;99496.25;;;-14.90;71.45
61568;BME280;47462;59.172;17.196;2024-01-16T05:07:43;99494.81;;;-14.86;71.48
61568;BME280;47462;59.172;17.196;2024-01-16T05:10:10;99497.75;;;-14.94;71.34
61568;BME280;47462;59.172;17.196;2024-01-16T05:12:39;99499.84;;;-15.01;71.44
61568;BME280;47462;59.172;17.196;2024-01-16T05:15:06;99504.00;;;-15.02;71.37
61568;BME280;47462;59.172;17.196;2024-01-16T05:17:32;99510.88;;;-14.98;71.60
61568;BME280;47462;59.172;17.196;2024-01-16T05:19:57;99514.34;;;-14.96;71.53
61568;BME280;47462;59.172;17.196;2024-01-16T05:22:22;99519.97;;;-15.00;71.59
61568;BME280;47462;59.172;17.196;2024-01-16T05:24:48;99530.13;;;-14.97;71.37
61568;BME280;47462;59.172;17.196;2024-01-16T05:27:13;99526.63;;;-15.00;71.35
61568;BME280;47462;59.172;17.196;2024-01-16T05:29:40;99527.63;;;-14.97;71.24
61568;BME280;47462;59.172;17.196;2024-01-16T05:32:06;99531.72;;;-14.99;71.12
61568;BME280;47462;59.172;17.196;2024-01-16T05:34:31;99536.25;;;-14.92;71.19
61568;BME280;47462;59.172;17.196;2024-01-16T05:36:56;99537.03;;;-14.93;70.97
61568;BME280;47462;59.172;17.196;2024-01-16T05:39:21;99545.16;;;-14.97;70.82
61568;BME280;47462;59.172;17.196;2024-01-16T05:41:47;99554.22;;;-14.99;71.13
61568;BME280;47462;59.172;17.196;2024-01-16T05:44:12;99553.91;;;-15.05;71.20
61568;BME280;47462;59.172;17.196;2024-01-16T05:46:37;99552.50;;;-15.00;70.97
61568;BME280;47462;59.172;17.196;2024-01-16T05:49:02;99552.94;;;-15.07;71.03
61568;BME280;47462;59.172;17.196;2024-01-16T05:51:28;99557.78;;;-15.10;71.00
61568;BME280;47462;59.172;17.196;2024-01-16T05:53:56;99559.09;;;-15.17;70.94
61568;BME280;47462;59.172;17.196;2024-01-16T05:56:22;99560.53;;;-15.20;70.61
61568;BME280;47462;59.172;17.196;2024-01-16T05:58:47;99559.09;;;-15.32;71.06
61568;BME280;47462;59.172;17.196;2024-01-16T06:01:12;99564.78;;;-15.34;70.71
61568;BME280;47462;59.172;17.196;2024-01-16T06:03:41;99556.84;;;-15.42;71.10
61568;BME280;47462;59.172;17.196;2024-01-16T06:06:07;99559.25;;;-15.44;71.40
61568;BME280;47462;59.172;17.196;2024-01-16T06:08:33;99556.84;;;-15.42;70.94
61568;BME280;47462;59.172;17.196;2024-01-16T06:10:58;99566.69;;;-15.45;70.66
61568;BME280;47462;59.172;17.196;2024-01-16T06:13:23;99564.19;;;-15.45;70.63
61568;BME280;47462;59.172;17.196;2024-01-16T06:15:49;99564.97;;;-15.46;70.88
61568;BME280;47462;59.172;17.196;2024-01-16T06:18:14;99568.34;;;-15.46;70.87
61568;BME280;47462;59.172;17.196;2024-01-16T06:20:39;99576.09;;;-15.41;70.55
61568;BME280;47462;59.172;17.196;2024-01-16T06:23:05;99585.94;;;-15.44;70.50
61568;BME280;47462;59.172;17.196;2024-01-16T06:25:30;99585.16;;;-15.43;70.50
61568;BME280;47462;59.172;17.196;2024-01-16T06:27:55;99586.88;;;-15.42;70.82
61568;BME280;47462;59.172;17.196;2024-01-16T06:30:21;99588.44;;;-15.44;70.17
61568;BME280;47462;59.172;17.196;2024-01-16T06:32:46;99583.06;;;-15.50;70.25
61568;BME280;47462;59.172;17.196;2024-01-16T06:35:12;99589.09;;;-15.47;70.20
61568;BME280;47462;59.172;17.196;2024-01-16T06:37:37;99594.81;;;-15.49;69.85
61568;BME280;47462;59.172;17.196;2024-01-16T06:40:03;99592.81;;;-15.55;70.03
61568;BME280;47462;59.172;17.196;2024-01-16T06:42:29;99594.97;;;-15.61;70.67
61568;BME280;47462;59.172;17.196;2024-01-16T06:44:54;99606.00;;;-15.57;70.19
61568;BME280;47462;59.172;17.196;2024-01-16T06:47:20;99609.13;;;-15.62;70.14
61568;BME280;47462;59.172;17.196;2024-01-16T06:49:45;99611.09;;;-15.71;70.29
61568;BME280;47462;59.172;17.196;2024-01-16T06:52:10;99622.72;;;-15.71;70.22
61568;BME280;47462;59.172;17.196;2024-01-16T06:54:35;99624.38;;;-15.72;70.02
61568;BME280;47462;59.172;17.196;2024-01-16T06:57:01;99624.81;;;-15.79;69.61
61568;BME280;47462;59.172;17.196;2024-01-16T06:59:26;99622.13;;;-15.82;69.72
61568;BME280;47462;59.172;17.196;2024-01-16T07:01:52;99618.69;;;-15.84;69.77
61568;BME280;47462;59.172;17.196;2024-01-16T07:04:17;99622.03;;;-15.84;69.88
61568;BME280;47462;59.172;17.196;2024-01-16T07:06:43;99624.44;;;-15.85;70.03
61568;BME280;47462;59.172;17.196;2024-01-16T07:09:09;99622.22;;;-15.81;69.83
61568;BME280;47462;59.172;17.196;2024-01-16T07:11:38;99624.63;;;-15.82;70.03
61568;BME280;47462;59.172;17.196;2024-01-16T07:14:06;99629.44;;;-15.85;69.75
61568;BME280;47462;59.172;17.196;2024-01-16T07:16:33;99627.53;;;-15.89;69.46
61568;BME280;47462;59.172;17.196;2024-01-16T07:18:58;99631.66;;;-15.90;69.45
61568;BME280;47462;59.172;17.196;2024-01-16T07:21:24;99629.47;;;-15.99;69.52
61568;BME280;47462;59.172;17.196;2024-01-16T07:23:49;99629.38;;;-16.00;69.64
61568;BME280;47462;59.172;17.196;2024-01-16T07:26:14;99629.13;;;-16.05;69.85
61568;BME280;47462;59.172;17.196;2024-01-16T07:28:41;99622.16;;;-16.24;69.50
61568;BME280;47462;59.172;17.196;2024-01-16T07:31:07;99642.81;;;-16.26;69.93
61568;BME280;47462;59.172;17.196;2024-01-16T07:33:35;99621.91;;;-16.42;70.20
61568;BME280;47462;59.172;17.196;2024-01-16T07:36:00;99641.69;;;-16.31;69.86
61568;BME280;47462;59.172;17.196;2024-01-16T07:38:26;99638.91;;;-16.36;69.77
61568;BME280;47462;59.172;17.196;2024-01-16T07:40:51;99642.88;;;-16.40;69.42
61568;BME280;47462;59.172;17.196;2024-01-16T07:43:16;99635.94;;;-16.44;69.04
61568;BME280;47462;59.172;17.196;2024-01-16T07:45:42;99647.38;;;-16.47;69.54
61568;BME280;47462;59.172;17.196;2024-01-16T07:48:07;99634.50;;;-16.54;69.06
61568;BME280;47462;59.172;17.196;2024-01-16T07:50:33;99651.59;;;-16.46;68.84
61568;BME280;47462;59.172;17.196;2024-01-16T07:52:58;99638.06;;;-16.50;69.27
61568;BME280;47462;59.172;17.196;2024-01-16T07:55:23;99643.72;;;-16.39;69.17
61568;BME280;47462;59.172;17.196;2024-01-16T07:57:49;99645.66;;;-16.35;68.95
61568;BME280;47462;59.172;17.196;2024-01-16T08:00:14;99649.09;;;-16.33;69.09
61568;BME280;47462;59.172;17.196;2024-01-16T08:02:40;99638.34;;;-16.32;68.90
61568;BME280;47462;59.172;17.196;2024-01-16T08:05:06;99645.50;;;-16.23;68.76
61568;BME280;47462;59.172;17.196;2024-01-16T08:07:32;99644.66;;;-16.24;68.69
61568;BME280;47462;59.172;17.196;2024-01-16T08:09:57;99654.34;;;-16.15;68.65
61568;BME280;47462;59.172;17.196;2024-01-16T08:12:22;99642.25;;;-16.22;68.84
61568;BME280;47462;59.172;17.196;2024-01-16T08:14:48;99654.81;;;-16.07;68.53
61568;BME280;47462;59.172;17.196;2024-01-16T08:17:13;99638.75;;;-16.11;68.61
61568;BME280;47462;59.172;17.196;2024-01-16T08:19:38;99649.19;;;-16.03;68.21
61568;BME280;47462;59.172;17.196;2024-01-16T08:22:03;99648.25;;;-16.05;68.37
61568;BME280;47462;59.172;17.196;2024-01-16T08:24:29;99649.47;;;-15.99;68.46
61568;BME280;47462;59.172;17.196;2024-01-16T08:26:54;99631.03;;;-16.01;68.19
61568;BME280;47462;59.172;17.196;2024-01-16T08:29:22;99650.28;;;-15.85;68.29
61568;BME280;47462;59.172;17.196;2024-01-16T08:31:48;99644.09;;;-15.76;68.36
61568;BME280;47462;59.172;17.196;2024-01-16T08:34:13;99646.19;;;-15.69;68.49
61568;BME280;47462;59.172;17.196;2024-01-16T08:36:38;99647.13;;;-15.67;68.00
61568;BME280;47462;59.172;17.196;2024-01-16T08:39:05;99646.19;;;-15.69;67.89
61568;BME280;47462;59.172;17.196;2024-01-16T08:41:30;99646.28;;;-15.68;67.74
61568;BME280;47462;59.172;17.196;2024-01-16T08:43:56;99651.78;;;-15.73;67.06
61568;BME280;47462;59.172;17.196;2024-01-16T08:46:22;99655.03;;;-15.89;66.48
61568;BME280;47462;59.172;17.196;2024-01-16T08:48:48;99650.66;;;-16.07;66.38
61568;BME280;47462;59.172;17.196;2024-01-16T08:51:13;99667.31;;;-16.07;66.10
61568;BME280;47462;59.172;17.196;2024-01-16T08:53:39;99666.41;;;-16.08;65.82
61568;BME280;47462;59.172;17.196;2024-01-16T08:56:04;99675.94;;;-16.02;66.10
61568;BME280;47462;59.172;17.196;2024-01-16T08:58:32;99670.09;;;-16.03;66.07
61568;BME280;47462;59.172;17.196;2024-01-16T09:01:02;99667.69;;;-16.01;65.94
61568;BME280;47462;59.172;17.196;2024-01-16T09:03:27;99667.59;;;-16.03;66.10
61568;BME280;47462;59.172;17.196;2024-01-16T09:05:53;99656.59;;;-16.05;66.17
61568;BME280;47462;59.172;17.196;2024-01-16T09:08:18;99669.06;;;-15.91;66.30
61568;BME280;47462;59.172;17.196;2024-01-16T09:10:44;99666.94;;;-15.85;66.39
61568;BME280;47462;59.172;17.196;2024-01-16T09:13:09;99655.84;;;-15.75;66.25
61568;BME280;47462;59.172;17.196;2024-01-16T09:15:35;99644.94;;;-15.76;65.87
61568;BME280;47462;59.172;17.196;2024-01-16T09:18:00;99663.25;;;-15.62;66.10
61568;BME280;47462;59.172;17.196;2024-01-16T09:20:26;99650.25;;;-15.56;66.35
61568;BME280;47462;59.172;17.196;2024-01-16T09:22:51;99671.50;;;-15.35;66.21
61568;BME280;47462;59.172;17.196;2024-01-16T09:25:17;99656.41;;;-15.36;65.74
61568;BME280;47462;59.172;17.196;2024-01-16T09:27:42;99666.75;;;-15.30;65.83
61568;BME280;47462;59.172;17.196;2024-01-16T09:30:08;99673.25;;;-15.34;65.47
61568;BME280;47462;59.172;17.196;2024-01-16T09:32:33;99672.63;;;-15.30;65.51
61568;BME280;47462;59.172;17.196;2024-01-16T09:35:01;99657.25;;;-15.36;65.73
61568;BME280;47462;59.172;17.196;2024-01-16T09:37:29;99667.03;;;-15.26;65.39
61568;BME280;47462;59.172;17.196;2024-01-16T09:39:54;99683.72;;;-15.11;65.37
61568;BME280;47462;59.172;17.196;2024-01-16T09:42:20;99679.75;;;-15.08;65.42
61568;BME280;47462;59.172;17.196;2024-01-16T09:44:47;99684.41;;;-14.99;65.77
61568;BME280;47462;59.172;17.196;2024-01-16T09:47:13;99685.19;;;-15.00;65.40
61568;BME280;47462;59.172;17.196;2024-01-16T09:49:40;99683.53;;;-14.84;65.57
61568;BME280;47462;59.172;17.196;2024-01-16T09:52:07;99685.31;;;-14.67;65.22
61568;BME280;47462;59.172;17.196;2024-01-16T09:54:34;99676.53;;;-14.75;64.59
61568;BME280;47462;59.172;17.196;2024-01-16T09:57:00;99691.13;;;-14.68;64.64
61568;BME280;47462;59.172;17.196;2024-01-16T09:59:29;99700.44;;;-14.65;64.38
61568;BME280;47462;59.172;17.196;2024-01-16T10:01:55;99701.41;;;-14.63;64.96
61568;BME280;47462;59.172;17.196;2024-01-16T10:04:21;99700.81;;;-14.58;64.81
61568;BME280;47462;59.172;17.196;2024-01-16T10:06:47;99691.94;;;-14.52;64.45
61568;BME280;47462;59.172;17.196;2024-01-16T10:09:13;99680.31;;;-14.67;64.89
61568;BME280;47462;59.172;17.196;2024-01-16T10:11:40;99697.03;;;-14.51;65.03
61568;BME280;47462;59.172;17.196;2024-01-16T10:14:07;99679.66;;;-14.48;65.37
61568;BME280;47462;59.172;17.196;2024-01-16T10:19:16;99691.59;;;-14.27;64.62
61568;BME280;47462;59.172;17.196;2024-01-16T10:21:42;99698.94;;;-14.15;64.42
61568;BME280;47462;59.172;17.196;2024-01-16T10:24:11;99691.84;;;-14.23;64.15
61568;BME280;47462;59.172;17.196;2024-01-16T10:26:38;99701.53;;;-14.14;64.70
61568;BME280;47462;59.172;17.196;2024-01-16T10:29:03;99705.38;;;-14.04;64.27
61568;BME280;47462;59.172;17.196;2024-01-16T10:31:33;99708.44;;;-13.93;63.76
61568;BME280;47462;59.172;17.196;2024-01-16T10:33:58;99691.28;;;-14.02;63.12
61568;BME280;47462;59.172;17.196;2024-01-16T10:36:25;99713.69;;;-13.89;64.07
61568;BME280;47462;59.172;17.196;2024-01-16T10:38:51;99711.84;;;-13.93;64.01
61568;BME280;47462;59.172;17.196;2024-01-16T10:41:23;99718.19;;;-13.83;64.08
61568;BME280;47462;59.172;17.196;2024-01-16T10:44:07;99727.22;;;-13.87;63.22
61568;BME280;47462;59.172;17.196;2024-01-16T10:46:33;99716.69;;;-13.96;63.51
61568;BME280;47462;59.172;17.196;2024-01-16T10:49:00;99728.91;;;-13.86;63.87
61568;BME280;47462;59.172;17.196;2024-01-16T10:51:27;99686.34;;;-14.01;63.52
61568;BME280;47462;59.172;17.196;2024-01-16T10:54:02;99722.91;;;-13.73;64.13
61568;BME280;47462;59.172;17.196;2024-01-16T10:56:33;99719.78;;;-13.69;63.47
61568;BME280;47462;59.172;17.196;2024-01-16T11:01:45;99718.94;;;-13.53;64.16
61568;BME280;47462;59.172;17.196;2024-01-16T11:04:12;99719.41;;;-13.43;63.85
61568;BME280;47462;59.172;17.196;2024-01-16T11:06:40;99724.56;;;-13.40;63.44
61568;BME280;47462;59.172;17.196;2024-01-16T11:09:07;99715.97;;;-13.46;63.51
61568;BME280;47462;59.172;17.196;2024-01-16T11:11:34;99726.31;;;-13.39;63.82
61568;BME280;47462;59.172;17.196;2024-01-16T11:14:03;99724.19;;;-13.48;63.27
61568;BME280;47462;59.172;17.196;2024-01-16T11:16:28;99720.50;;;-13.71;62.71
61568;BME280;47462;59.172;17.196;2024-01-16T11:18:57;99735.81;;;-13.82;62.99
61568;BME280;47462;59.172;17.196;2024-01-16T11:21:23;99722.31;;;-14.00;63.38
61568;BME280;47462;59.172;17.196;2024-01-16T11:23:50;99741.66;;;-14.29;63.93
61568;BME280;47462;59.172;17.196;2024-01-16T11:26:33;99739.41;;;-14.24;64.50
61568;BME280;47462;59.172;17.196;2024-01-16T11:28:59;99746.22;;;-14.07;64.37
61568;BME280;47462;59.172;17.196;2024-01-16T11:31:35;99731.81;;;-13.94;64.17
61568;BME280;47462;59.172;17.196;2024-01-16T11:34:02;99739.63;;;-13.73;64.29
61568;BME280;47462;59.172;17.196;2024-01-16T11:36:49;99749.50;;;-13.60;64.36
61568;BME280;47462;59.172;17.196;2024-01-16T11:39:23;99752.47;;;-13.51;63.74
61568;BME280;47462;59.172;17.196;2024-01-16T11:41:57;99734.31;;;-13.47;63.68
61568;BME280;47462;59.172;17.196;2024-01-16T11:44:48;99733.69;;;-13.42;63.84
61568;BME280;47462;59.172;17.196;2024-01-16T11:47:23;99728.16;;;-13.35;63.94
61568;BME280;47462;59.172;17.196;2024-01-16T11:50:08;99732.22;;;-13.21;63.55
61568;BME280;47462;59.172;17.196;2024-01-16T11:52:41;99728.38;;;-13.14;63.78
61568;BME280;47462;59.172;17.196;2024-01-16T11:55:26;99722.09;;;-13.06;63.31
61568;BME280;47462;59.172;17.196;2024-01-16T11:58:19;99716.13;;;-13.08;63.43
61568;BME280;47462;59.172;17.196;2024-01-16T12:00:49;99713.44;;;-13.11;63.63
61568;BME280;47462;59.172;17.196;2024-01-16T12:03:21;99709.53;;;-13.06;63.76
61568;BME280;47462;59.172;17.196;2024-01-16T12:05:57;99720.28;;;-13.08;63.25
61568;BME280;47462;59.172;17.196;2024-01-16T12:08:23;99718.31;;;-13.14;63.31
61568;BME280;47462;59.172;17.196;2024-01-16T12:10:48;99708.09;;;-13.01;62.92
61568;BME280;47462;59.172;17.196;2024-01-16T12:13:14;99704.91;;;-12.98;63.00
61568;BME280;47462;59.172;17.196;2024-01-16T12:15:39;99708.09;;;-13.01;62.49
61568;BME280;47462;59.172;17.196;2024-01-16T12:18:05;99702.59;;;-12.94;62.60
61568;BME280;47462;59.172;17.196;2024-01-16T12:20:32;99710.97;;;-12.77;63.01
61568;BME280;47462;59.172;17.196;2024-01-16T12:23:06;99708.81;;;-12.69;62.62
61568;BME280;47462;59.172;17.196;2024-01-16T12:25:33;99710.88;;;-12.60;62.81
61568;BME280;47462;59.172;17.196;2024-01-16T12:28:03;99716.72;;;-12.61;62.73
61568;BME280;47462;59.172;17.196;2024-01-16T12:30:31;99707.59;;;-12.59;62.48
61568;BME280;47462;59.172;17.196;2024-01-16T12:33:06;99697.41;;;-12.62;62.80
61568;BME280;47462;59.172;17.196;2024-01-16T12:35:34;99687.13;;;-12.67;62.91
61568;BME280;47462;59.172;17.196;2024-01-16T12:38:07;99699.28;;;-12.58;62.57
61568;BME280;47462;59.172;17.196;2024-01-16T12:40:42;99700.84;;;-12.60;63.08
61568;BME280;47462;59.172;17.196;2024-01-16T12:43:10;99704.72;;;-12.49;63.30